Latest Weather Observations for Westmere

IDV60801

Issued at 4:52 pm EST Tuesday 17 May 2022 (issued every 10 minutes, with the page automatically refreshed every 10 minutes)

About weather observations | Map of weather stations | Latest weather observations for VIC | Other Formats
Station Details ID: 089112 Name: WESTMERE Lat: -37.71 Lon: 142.94 Height: 226.0 m
Data from the previous 72 hours. | See also: Recent months at Westmere
Date/Time
EST
Temp
°C
App
Temp
°C
Dew
Point
°C
Rel
Hum
%
Delta-T
°C
Wind Press
QNH
hPa
Press
MSL
hPa
Rain since
9am
mm
Dir  Spd
km/h
Gust
km/h
Spd
kts
Gust
kts
17/04:30pm 12.3 7.4 6.8 69 2.7 NW 22 32 12 17 1016.9 1017.1 -
17/04:00pm 12.4 8.7 6.5 67 2.8 WNW 15 28 8 15 1017.3 1017.4 -
17/03:30pm 12.7 7.2 6.1 64 3.2 WNW 24 33 13 18 1017.0 1017.2 -
17/03:00pm 12.8 6.9 5.7 62 3.4 WNW 26 33 14 18 1017.0 1017.2 -
17/02:30pm 12.7 6.5 6.3 65 3.1 NW 28 37 15 20 1017.3 1017.4 -
17/02:00pm 12.7 7.9 5.4 61 3.4 WNW 20 35 11 19 1017.3 1017.4 -
17/01:30pm 12.4 7.3 6.0 65 3.0 WNW 22 37 12 20 1017.6 1017.7 -
17/01:00pm 11.9 6.5 6.2 68 2.7 WNW 24 33 13 18 1017.9 1018.0 -
17/12:30pm 11.6 7.0 6.5 71 2.4 WNW 20 32 11 17 1018.4 1018.5 -
17/12:00pm 11.0 5.6 8.1 82 1.4 NW 26 33 14 18 1018.8 1018.9 -
17/11:30am 11.8 7.1 7.7 76 2.0 NW 22 30 12 16 1018.9 1019.0 -
17/11:00am 10.5 6.3 8.4 87 1.0 WNW 20 30 11 16 1019.1 1019.2 -
17/10:30am 10.8 6.1 7.9 82 1.4 NW 22 32 12 17 1019.0 1019.1 -
17/10:00am 9.9 5.3 8.0 88 0.9 NW 22 30 12 16 1019.3 1019.4 -
17/09:30am 9.9 6.0 8.7 92 0.6 NNW 19 28 10 15 1019.2 1019.3 -
17/09:00am 8.8 5.2 8.2 96 0.3 NNW 17 20 9 11 1019.0 1019.1 -
17/08:30am 7.2 3.3 7.2 100 0.0 NNW 17 22 9 12 1019.0 1019.1 -
17/08:00am 6.7 3.1 6.7 100 0.0 NNW 15 20 8 11 1018.7 1018.8 -
17/07:30am 6.8 3.2 6.8 100 0.0 NNW 15 20 8 11 1018.5 1018.6 -
17/07:00am 7.0 3.5 7.0 100 0.0 NNW 15 17 8 9 1018.3 1018.4 -
17/06:30am 7.1 2.8 7.1 100 0.0 NNW 19 24 10 13 1018.0 1018.1 -
17/06:00am 6.9 3.3 6.6 98 0.1 NNW 15 19 8 10 1017.6 1017.7 -
17/05:30am 6.9 3.2 6.3 96 0.3 NNW 15 17 8 9 1017.4 1017.5 -
17/05:00am 5.9 2.5 5.9 100 0.0 NNW 13 17 7 9 1017.0 1017.2 -
17/04:30am 5.5 1.6 5.5 100 0.0 NNW 15 19 8 10 1016.8 1017.0 -
17/04:00am 5.5 2.0 5.5 100 0.0 NNW 13 15 7 8 1016.8 1017.0 -
17/03:30am 5.8 2.4 5.8 100 0.0 NNW 13 17 7 9 1016.6 1016.8 -
17/03:00am 6.4 3.1 6.4 100 0.0 NNW 13 15 7 8 1016.6 1016.8 -
17/02:30am 7.2 3.7 7.1 99 0.0 NNW 15 19 8 10 1016.6 1016.8 -
17/02:00am 6.2 2.9 6.2 100 0.0 NNW 13 17 7 9 1016.5 1016.6 -
17/01:30am 5.1 1.5 5.1 100 0.0 N 13 13 7 7 1016.6 1016.8 -
17/01:00am 6.8 3.6 6.8 100 0.0 NNW 13 19 7 10 1016.6 1016.8 -
17/12:30am 6.6 3.3 6.6 100 0.0 NNW 13 17 7 9 1016.5 1016.6 -
17/12:00am 6.9 3.0 6.9 100 0.0 NW 17 19 9 10 1016.5 1016.6 -
 
Date/Time
EST
Temp
°C
App
Temp
°C
Dew
Point
°C
Rel
Hum
%
Delta-T
°C
Wind Press
QNH
hPa
Press
MSL
hPa
Rain since
9am
mm
Dir  Spd
km/h
Gust
km/h
Spd
kts
Gust
kts
16/11:30pm 7.0 3.5 7.0 100 0.0 NW 15 19 8 10 1016.4 1016.5 -
16/11:00pm 6.7 3.8 6.7 100 0.0 NW 11 15 6 8 1016.4 1016.5 -
16/10:30pm 7.2 3.7 7.2 100 0.0 NW 15 17 8 9 1016.3 1016.4 -
16/10:00pm 7.1 4.0 7.1 100 0.0 NW 13 15 7 8 1016.2 1016.3 -
16/09:30pm 7.3 4.2 7.3 100 0.0 NW 13 17 7 9 1016.0 1016.1 -
16/09:00pm 6.8 4.0 6.8 100 0.0 NW 11 13 6 7 1015.9 1016.0 -
16/08:30pm 7.7 4.6 7.4 98 0.1 NNW 13 15 7 8 1015.7 1015.8 -
16/08:00pm 8.2 4.7 7.3 94 0.4 NW 15 19 8 10 1015.7 1015.8 -
16/07:30pm 9.4 5.0 7.5 88 0.9 WNW 20 28 11 15 1015.3 1015.4 -
16/07:00pm 8.9 5.1 7.4 90 0.7 WNW 17 22 9 12 1014.9 1015.0 -
16/06:30pm 8.7 5.2 7.0 89 0.8 WNW 15 19 8 10 1014.6 1014.7 -
16/06:00pm 9.2 4.7 7.0 86 1.0 WNW 20 32 11 17 1014.0 1014.1 -
16/05:30pm 9.5 3.7 7.8 89 0.8 WNW 28 43 15 23 1013.7 1013.8 -
16/05:00pm 10.6 5.8 8.7 88 0.9 WNW 24 39 13 21 1013.5 1013.6 -
16/04:30pm 11.7 7.9 7.6 76 2.0 WNW 17 24 9 13 1012.8 1012.8 -
16/04:00pm 11.7 7.7 9.1 84 1.3 WNW 20 28 11 15 1012.6 1012.6 -
16/03:45pm 13.0 7.0 8.7 75 2.2 WNW 30 50 16 27 1012.3 1012.4 -
16/03:30pm 14.1 9.7 7.2 63 3.4 WNW 20 37 11 20 1012.1 1012.2 -
16/03:00pm 12.6 7.5 6.2 65 3.1 WNW 22 33 12 18 1012.0 1012.1 -
16/02:30pm 11.9 6.0 8.9 82 1.5 WNW 30 50 16 27 1012.0 1012.1 -
16/02:01pm 14.6 7.8 4.9 52 4.6 WNW 30 48 16 26 1011.5 1011.6 -
16/02:00pm 14.7 7.4 4.7 51 4.7 WNW 32 48 17 26 1011.6 1011.7 -
16/01:30pm 15.6 8.8 5.2 50 5.0 WNW 30 48 16 26 1011.5 1011.6 -
16/01:00pm 14.0 7.7 5.9 58 3.9 WNW 28 35 15 19 1012.1 1012.2 -
16/12:30pm 14.4 7.9 6.7 60 3.8 NW 30 39 16 21 1012.6 1012.6 -
16/12:00pm 14.3 8.7 7.1 62 3.6 WNW 26 35 14 19 1012.9 1013.0 -
16/11:30am 13.6 8.0 7.2 65 3.2 WNW 26 35 14 19 1013.0 1013.1 -
16/11:00am 13.0 7.1 7.5 69 2.7 WNW 28 35 15 19 1013.4 1013.5 -
16/10:30am 12.2 7.2 8.1 76 2.0 WNW 24 35 13 19 1013.5 1013.6 -
16/10:00am 11.8 7.1 7.7 76 2.0 NW 22 33 12 18 1013.7 1013.8 -
16/09:30am 11.5 6.4 7.8 78 1.8 NW 24 28 13 15 1013.5 1013.6 -
16/09:00am 11.0 6.4 8.2 83 1.4 NW 22 30 12 16 1013.2 1013.3 -
16/08:30am 10.1 6.3 9.0 93 0.5 WNW 19 28 10 15 1013.0 1013.1 -
16/08:00am 10.7 7.0 8.1 84 1.3 WNW 17 28 9 15 1012.6 1012.6 -
16/07:30am 10.2 6.9 8.1 87 1.0 NW 15 20 8 11 1012.1 1012.2 -
16/07:00am 10.2 7.0 8.3 88 0.9 NW 15 24 8 13 1012.0 1012.1 -
16/06:30am 10.5 6.9 8.4 87 1.0 NW 17 20 9 11 1011.7 1011.8 -
16/06:00am 10.9 6.7 8.1 83 1.4 NW 20 28 11 15 1011.5 1011.6 -
16/05:30am 10.7 6.7 8.1 84 1.3 NW 19 30 10 16 1011.1 1011.2 -
16/05:00am 10.6 6.5 8.5 87 1.0 WNW 20 30 11 16 1010.9 1011.0 -
16/04:30am 10.9 4.8 8.3 84 1.3 WNW 30 41 16 22 1010.7 1010.8 -
16/04:00am 10.8 5.4 8.2 84 1.3 NW 26 32 14 17 1010.5 1010.6 -
16/03:30am 10.8 6.7 8.7 87 1.0 NW 20 28 11 15 1010.5 1010.6 -
16/03:00am 11.0 7.5 8.6 85 1.2 NW 17 22 9 12 1010.4 1010.5 -
16/02:30am 10.2 6.1 8.0 86 1.1 NW 19 22 10 12 1010.7 1010.8 -
16/02:00am 9.9 6.1 7.5 85 1.2 NW 17 22 9 12 1010.7 1010.8 -
16/01:30am 10.0 5.8 7.3 83 1.3 NW 19 24 10 13 1010.8 1010.9 -
16/01:00am 10.1 6.7 7.7 85 1.2 NW 15 20 8 11 1010.9 1011.0 -
16/12:30am 9.9 6.9 7.8 87 1.0 NNW 13 17 7 9 1011.0 1011.1 -
16/12:00am 10.4 6.1 7.1 80 1.6 NW 19 24 10 13 1010.9 1011.0 -
 
Date/Time
EST
Temp
°C
App
Temp
°C
Dew
Point
°C
Rel
Hum
%
Delta-T
°C
Wind Press
QNH
hPa
Press
MSL
hPa
Rain since
9am
mm
Dir  Spd
km/h
Gust
km/h
Spd
kts
Gust
kts
15/11:30pm 11.1 6.2 7.0 76 2.0 WNW 22 32 12 17 1010.7 1010.8 -
15/11:00pm 11.4 6.9 8.4 82 1.5 WNW 22 32 12 17 1010.7 1010.8 -
15/10:30pm 11.4 7.7 9.5 88 1.0 WNW 19 26 10 14 1010.7 1010.8 -
15/10:00pm 12.1 7.4 9.3 83 1.4 WNW 24 35 13 19 1010.6 1010.7 -
15/09:30pm 12.3 8.1 9.9 85 1.2 WNW 22 35 12 19 1010.3 1010.4 -
15/09:00pm 12.6 7.7 10.1 85 1.3 WNW 26 41 14 22 1010.3 1010.4 -
15/08:35pm 12.4 7.4 10.8 90 0.8 W 28 48 15 26 1010.1 1010.2 -
15/08:30pm 12.2 7.9 12.2 100 0.0 W 26 39 14 21 1010.2 1010.3 -
15/08:00pm 13.8 8.3 11.7 87 1.1 NW 32 46 17 25 1009.4 1009.5 -
15/07:30pm 13.8 9.8 13.0 95 0.4 NW 26 33 14 18 1008.8 1008.8 -
15/07:00pm 14.0 10.4 13.2 95 0.4 NNW 24 39 13 21 1008.6 1008.6 -
15/06:30pm 14.1 10.4 13.8 98 0.2 NNW 26 35 14 19 1008.5 1008.5 -
15/06:00pm 14.1 9.2 13.6 97 0.3 NW 32 41 17 22 1008.1 1008.1 -
15/05:32pm 15.6 10.3 11.2 75 2.4 NW 30 48 16 26 1007.6 1007.7 -
15/05:30pm 16.1 11.4 10.6 70 3.0 NW 26 43 14 23 1007.5 1007.6 -
15/05:00pm 16.5 11.9 9.7 64 3.6 NNW 24 30 13 16 1007.1 1007.2 -
15/04:30pm 16.9 11.4 9.1 60 4.1 NNW 28 39 15 21 1007.1 1007.2 -
15/04:00pm 17.3 10.9 8.7 57 4.5 NNW 32 44 17 24 1007.0 1007.1 -
15/03:30pm 17.6 11.6 8.5 55 4.7 NNW 30 43 16 23 1007.0 1007.1 -
15/03:00pm 17.5 10.8 8.1 54 4.9 NW 33 43 18 23 1007.4 1007.5 -
15/02:30pm 17.7 11.0 8.0 53 5.0 NNW 33 46 18 25 1007.4 1007.5 -
15/02:00pm 17.6 10.4 7.6 52 5.1 NW 35 46 19 25 1007.6 1007.7 -
15/01:30pm 18.5 9.8 7.6 49 5.6 NW 43 54 23 29 1007.6 1007.7 -
15/01:00pm 18.9 12.2 8.3 50 5.5 NW 33 46 18 25 1008.4 1008.4 -
15/12:30pm 18.6 10.0 8.3 51 5.4 NW 43 57 23 31 1008.8 1008.8 -
15/12:03pm 18.0 9.6 8.8 55 4.8 NW 43 63 23 34 1009.2 1009.3 -
15/12:00pm 17.9 9.3 8.7 55 4.8 NNW 44 63 24 34 1009.1 1009.1 -
15/11:30am 17.9 11.1 9.3 57 4.5 NW 35 50 19 27 1009.8 1009.9 -
15/11:00am 17.0 10.9 10.6 66 3.5 NNW 33 46 18 25 1010.0 1010.1 -
15/10:30am 16.0 11.1 12.4 79 2.0 NNW 30 46 16 25 1010.3 1010.4 -
15/10:00am 14.9 11.7 14.3 96 0.3 NNE 24 33 13 18 1010.6 1010.7 -
15/09:30am 14.0 11.7 14.0 100 0.0 NNW 19 30 10 16 1011.1 1011.2 -
15/09:00am 13.0 10.3 13.0 100 0.0 NNW 19 26 10 14 1011.6 1011.7 -
15/08:30am 13.0 10.1 13.0 100 0.0 N 20 24 11 13 1011.6 1011.7 -
15/08:00am 12.7 9.7 12.4 98 0.2 N 20 24 11 13 1011.3 1011.4 -
15/07:30am 11.9 9.3 11.9 100 0.0 N 17 20 9 11 1011.1 1011.2 -
15/07:00am 10.2 7.5 10.2 100 0.0 N 15 17 8 9 1011.0 1011.1 -
15/06:30am 11.1 8.2 11.1 100 0.0 N 17 19 9 10 1011.1 1011.2 -
15/06:00am 11.3 9.2 11.3 100 0.0 NNE 13 15 7 8 1011.1 1011.2 -
15/05:30am 12.2 10.8 12.2 100 0.0 NNW 11 13 6 7 1011.1 1011.2 -
15/05:00am 13.3 11.5 13.3 100 0.0 NNW 15 20 8 11 1011.1 1011.2 -
15/04:30am 12.6 10.2 12.6 100 0.0 NNE 17 20 9 11 1011.0 1011.1 -
15/04:00am 11.9 9.6 11.9 100 0.0 N 15 19 8 10 1011.1 1011.2 -
15/03:30am 13.0 11.9 13.0 100 0.0 N 11 13 6 7 1011.4 1011.5 -
15/03:00am 13.5 12.5 13.5 100 0.0 N 11 15 6 8 1011.7 1011.8 -
15/02:30am 13.4 12.8 13.4 100 0.0 N 9 11 5 6 1011.8 1011.9 -
15/02:00am 13.9 13.4 13.9 100 0.0 NNE 9 13 5 7 1012.0 1012.1 -
15/01:30am 14.0 13.2 14.0 100 0.0 N 11 15 6 8 1012.2 1012.3 -
15/01:00am 13.9 12.6 13.6 98 0.2 NNW 13 17 7 9 1012.1 1012.2 -
15/12:30am 14.1 12.3 13.3 95 0.4 NNW 15 22 8 12 1012.1 1012.2 -
15/12:00am 14.2 13.3 13.7 97 0.3 NNW 11 15 6 8 1012.2 1012.3 -
 
Date/Time
EST
Temp
°C
App
Temp
°C
Dew
Point
°C
Rel
Hum
%
Delta-T
°C
Wind Press
QNH
hPa
Press
MSL
hPa
Rain since
9am
mm
Dir  Spd
km/h
Gust
km/h
Spd
kts
Gust
kts
14/11:30pm 14.5 12.6 13.0 91 0.8 N 15 19 8 10 1012.1 1012.2 -
14/11:00pm 14.3 12.1 14.3 100 0.0 NNW 19 24 10 13 1012.2 1012.3 -
14/10:30pm 13.4 12.4 13.4 100 0.0 NNE 11 13 6 7 1012.2 1012.3 -
14/10:00pm 14.3 12.3 14.0 98 0.2 NNW 17 19 9 10 1012.0 1012.1 -
14/09:30pm 14.7 14.0 14.2 97 0.3 N 11 15 6 8 1012.1 1012.2 -
14/09:00pm 14.8 13.8 14.5 98 0.2 NNW 13 17 7 9 1012.0 1012.1 -
14/08:30pm 14.5 13.0 14.2 98 0.2 NNE 15 19 8 10 1011.8 1011.9 -
14/08:00pm 14.5 12.3 14.5 100 0.0 N 19 24 10 13 1011.5 1011.6 -
14/07:30pm 14.6 12.2 13.8 95 0.5 NE 19 24 10 13 1011.3 1011.4 -
14/07:00pm 14.9 14.4 13.9 94 0.6 NNE 9 13 5 7 1011.2 1011.3 -
14/06:30pm 15.3 13.6 13.5 89 1.0 NNE 15 19 8 10 1010.8 1010.9 -
14/06:00pm 15.8 13.0 13.1 84 1.5 NNW 20 26 11 14 1010.2 1010.3 -
14/05:30pm 16.0 13.1 12.9 82 1.7 NE 20 26 11 14 1010.1 1010.2 -
14/05:00pm 17.3 15.3 12.8 75 2.5 NNE 15 20 8 11 1009.9 1010.0 -

Other formats

Comma delimited format used in spreadsheet applications
http://www.bom.gov.au/fwo/IDV60801/IDV60801.95840.axf

JavaScript Object Notation format (JSON) in row-major order
http://www.bom.gov.au/fwo/IDV60801/IDV60801.95840.json

Data quality

Most of these data are generated automatically and are frequently updated. Quality checks on data are not normally performed. It is possible for incorrect values to appear. Refer to information at About Latest Weather Observations and please check the disclaimer before using these data.